createdAt,value
2024-02-13T00:01:07.994Z,98398.38
2024-02-13T00:03:41.169Z,98398.08
2024-02-13T00:06:10.325Z,98403.31
2024-02-13T00:08:45.386Z,98405.63
2024-02-13T00:11:18.813Z,98403.08
2024-02-13T00:13:46.614Z,98406.21
2024-02-13T00:16:18.039Z,98412.12
2024-02-13T00:18:48.840Z,98412.30
2024-02-13T00:21:18.848Z,98417.23
2024-02-13T00:23:48.039Z,98422.77
2024-02-13T00:26:17.152Z,98428.25
2024-02-13T00:28:48.759Z,98430.24
2024-02-13T00:31:18.311Z,98435.62
2024-02-13T00:33:49.016Z,98437.80
2024-02-13T00:36:18.593Z,98442.11
2024-02-13T00:38:50.299Z,98449.83
2024-02-13T00:41:17.265Z,98450.23
2024-02-13T00:43:45.350Z,98454.14
2024-02-13T00:46:16.634Z,98460.29
2024-02-13T00:48:47.123Z,98464.13
2024-02-13T00:51:16.138Z,98466.77
2024-02-13T00:53:44.085Z,98469.02
2024-02-13T00:56:14.210Z,98471.10
2024-02-13T00:58:46.718Z,98474.90
2024-02-13T01:01:14.447Z,98474.38
2024-02-13T01:03:41.461Z,98479.97
2024-02-13T01:06:12.897Z,98483.33
2024-02-13T01:08:41.896Z,98485.70
2024-02-13T04:40:38.935Z,98842.42
2024-02-13T04:43:08.432Z,98844.31
2024-02-13T04:45:38.691Z,98845.13
2024-02-13T04:48:06.449Z,98845.93
2024-02-13T04:50:41.094Z,98849.50
2024-02-13T04:53:08.475Z,98850.82
2024-02-13T04:55:38.992Z,98855.86
2024-02-13T04:58:08.496Z,98857.05
2024-02-13T05:00:40.359Z,98859.38
2024-02-13T05:03:27.033Z,98860.94
2024-02-13T05:06:13.252Z,98866.05
2024-02-13T05:08:44.172Z,98870.73
2024-02-13T05:11:14.836Z,98872.70
2024-02-13T05:13:49.744Z,98871.27
2024-02-13T05:16:18.637Z,98874.70
2024-02-13T05:18:52.172Z,98873.84
2024-02-13T05:21:39.468Z,98877.44
2024-02-13T05:24:11.401Z,98878.05
2024-02-13T05:26:41.401Z,98881.21
2024-02-13T05:29:11.096Z,98887.48
2024-02-13T05:31:41.559Z,98892.67
2024-02-13T05:34:10.441Z,98896.20
2024-02-13T05:36:45.300Z,98902.77
2024-02-13T05:39:14.488Z,98902.77
2024-02-13T05:41:42.299Z,98910.88
2024-02-13T05:44:11.949Z,98910.26
2024-02-13T05:46:39.010Z,98913.16
2024-02-13T05:49:06.190Z,98918.35
2024-02-13T05:51:36.619Z,98920.97
2024-02-13T05:54:06.616Z,98925.55
2024-02-13T05:56:36.590Z,98934.73
2024-02-13T05:59:03.922Z,98943.84
2024-02-13T06:01:31.786Z,98945.20
2024-02-13T06:04:06.352Z,98948.19
2024-02-13T06:06:37.662Z,98951.55
2024-02-13T06:09:04.653Z,98957.15
2024-02-13T06:11:36.880Z,98957.17
2024-02-13T06:14:09.138Z,98960.36
2024-02-13T06:16:37.678Z,98967.48
2024-02-13T06:19:06.827Z,98973.66
2024-02-13T06:21:35.724Z,98975.75
2024-02-13T06:24:02.763Z,98978.29
2024-02-13T06:26:32.358Z,98978.73
2024-02-13T06:29:03.890Z,98984.84
2024-02-13T06:31:33.491Z,98985.92
2024-02-13T06:34:00.671Z,98994.27
2024-02-13T06:36:28.200Z,98996.23
2024-02-13T06:38:55.029Z,99002.55
2024-02-13T06:41:21.795Z,99007.42
2024-02-13T06:43:53.358Z,99011.88
2024-02-13T06:46:22.914Z,99017.11
2024-02-13T06:48:53.170Z,99022.55
2024-02-13T06:51:27.696Z,99022.92
2024-02-13T06:54:01.085Z,99032.00
2024-02-13T06:56:35.355Z,99039.00
2024-02-13T06:59:08.282Z,99043.09
2024-02-13T07:01:36.688Z,99048.05
2024-02-13T07:04:07.137Z,99050.83
2024-02-13T07:06:49.281Z,99051.89
2024-02-13T07:09:26.342Z,99056.80
2024-02-13T07:11:55.756Z,99054.43
2024-02-13T07:14:30.157Z,99061.33
2024-02-13T07:16:59.945Z,99066.09
2024-02-13T07:19:30.507Z,99066.34
2024-02-13T07:22:00.067Z,99069.16
2024-02-13T07:24:39.294Z,99075.99
2024-02-13T07:27:08.572Z,99082.30
2024-02-13T07:29:43.405Z,99085.41
2024-02-13T07:32:16.982Z,99092.25
2024-02-13T07:34:48.318Z,99091.27
2024-02-13T07:37:20.138Z,99092.53
2024-02-13T07:39:51.690Z,99091.07
2024-02-13T07:42:24.685Z,99093.12
2024-02-13T07:44:54.503Z,99094.87
2024-02-13T07:47:26.212Z,99099.49
2024-02-13T07:49:54.381Z,99101.91
2024-02-13T07:52:21.443Z,99108.91
2024-02-13T07:54:53.381Z,99110.17
2024-02-13T07:57:22.879Z,99117.22
2024-02-13T07:59:56.576Z,99115.55
2024-02-13T08:02:23.839Z,99117.02
2024-02-13T08:04:52.833Z,99120.58
2024-02-13T08:07:28.208Z,99120.86
2024-02-13T08:09:55.195Z,99120.61
2024-02-13T08:12:24.939Z,99127.56
2024-02-13T08:14:53.674Z,99132.60
2024-02-13T08:17:25.228Z,99137.80
2024-02-13T08:20:00.109Z,99140.26
2024-02-13T08:22:27.412Z,99141.28
2024-02-13T08:24:54.342Z,99145.46
2024-02-13T08:27:22.687Z,99149.48
2024-02-13T08:29:49.736Z,99147.42
2024-02-13T08:32:21.060Z,99146.80
2024-02-13T08:34:50.198Z,99148.73
2024-02-13T08:37:20.850Z,99150.61
2024-02-13T08:39:53.632Z,99150.33
2024-02-13T08:42:25.031Z,99150.73
2024-02-13T08:44:56.804Z,99154.50
2024-02-13T08:47:30.712Z,99159.98
2024-02-13T08:50:00.192Z,99167.34
2024-02-13T08:52:29.492Z,99170.90
2024-02-13T08:54:58.984Z,99173.28
2024-02-13T08:57:25.794Z,99176.81
2024-02-13T08:59:57.248Z,99177.98
2024-02-13T09:02:24.183Z,99180.50
2024-02-13T09:04:53.533Z,99179.65
2024-02-13T09:07:20.216Z,99183.12
2024-02-13T09:09:49.242Z,99187.59
2024-02-13T09:12:16.481Z,99188.60
2024-02-13T09:14:44.613Z,99190.44
2024-02-13T09:17:19.117Z,99200.86
2024-02-13T09:19:48.912Z,99202.27
2024-02-13T09:22:17.914Z,99203.77
2024-02-13T09:24:50.803Z,99203.55
2024-02-13T09:27:20.463Z,99201.96
2024-02-13T09:29:50.053Z,99199.52
2024-02-13T09:32:19.057Z,99204.87
2024-02-13T09:34:48.465Z,99212.73
2024-02-13T09:37:17.934Z,99219.59
2024-02-13T09:39:44.950Z,99223.02
2024-02-13T09:42:17.059Z,99217.45
2024-02-13T09:44:48.100Z,99222.79
2024-02-13T09:47:19.518Z,99225.65
2024-02-13T09:49:50.662Z,99231.50
2024-02-13T09:52:26.616Z,99238.03
2024-02-13T09:55:04.479Z,99243.27
2024-02-13T09:57:33.838Z,99253.27
2024-02-13T10:00:17.602Z,99254.98
2024-02-13T10:02:51.476Z,99266.16
2024-02-13T10:05:21.552Z,99273.80
2024-02-13T10:07:48.119Z,99281.15
2024-02-13T10:10:15.382Z,99282.15
2024-02-13T10:12:52.558Z,99290.41
2024-02-13T10:15:22.510Z,99296.52
2024-02-13T10:17:51.700Z,99300.27
2024-02-13T10:20:23.245Z,99295.20
2024-02-13T10:22:55.189Z,99298.88
2024-02-13T10:25:24.800Z,99298.06
2024-02-13T10:27:54.983Z,99300.98
2024-02-13T10:30:29.244Z,99301.51
2024-02-13T10:33:07.072Z,99305.06
2024-02-13T10:35:39.901Z,99306.87
2024-02-13T10:38:11.152Z,99308.09
2024-02-13T10:40:47.432Z,99307.00
2024-02-13T10:43:15.947Z,99308.59
2024-02-13T10:45:51.686Z,99310.23
2024-02-13T10:48:26.373Z,99308.73
2024-02-13T10:50:58.471Z,99315.83
2024-02-13T10:53:33.422Z,99314.19
2024-02-13T10:56:06.573Z,99315.66
2024-02-13T10:58:34.655Z,99321.77
2024-02-13T11:01:04.027Z,99324.59
2024-02-13T11:03:34.897Z,99328.98
2024-02-13T11:06:02.026Z,99325.09
2024-02-13T11:08:31.662Z,99327.50
2024-02-13T11:11:05.909Z,99333.66
2024-02-13T11:13:35.513Z,99334.97
2024-02-13T11:16:06.434Z,99341.69
2024-02-13T11:18:35.785Z,99342.76
2024-02-13T11:21:09.582Z,99343.33
2024-02-13T11:23:39.257Z,99342.76
2024-02-13T11:26:07.423Z,99347.07
2024-02-13T11:28:43.351Z,99349.56
2024-02-13T11:31:17.570Z,99354.23
2024-02-13T11:34:04.866Z,99357.92
2024-02-13T11:36:40.409Z,99361.84
2024-02-13T11:39:10.478Z,99366.84
2024-02-13T11:41:38.793Z,99370.00
2024-02-13T11:44:12.251Z,99368.98
2024-02-13T11:46:52.875Z,99376.14
2024-02-13T11:49:22.992Z,99375.45
2024-02-13T11:51:53.539Z,99379.71
2024-02-13T11:54:20.359Z,99383.48
2024-02-13T11:56:51.711Z,99386.14
2024-02-13T11:59:23.867Z,99385.36
2024-02-13T12:01:53.281Z,99391.05
2024-02-13T12:04:22.671Z,99384.79
2024-02-13T12:06:50.098Z,99386.39
2024-02-13T12:09:19.074Z,99389.18
2024-02-13T12:11:48.697Z,99389.56
2024-02-13T12:14:20.499Z,99392.02
2024-02-13T12:16:53.997Z,99389.57
2024-02-13T12:19:20.728Z,99387.85
2024-02-13T12:21:49.592Z,99389.65
2024-02-13T12:24:21.202Z,99394.03
2024-02-13T12:26:52.470Z,99394.73
2024-02-13T12:29:19.737Z,99402.15
2024-02-13T12:31:49.388Z,99399.98
2024-02-13T12:34:23.894Z,99405.51
2024-02-13T12:37:03.321Z,99403.86
2024-02-13T12:39:38.631Z,99407.55
2024-02-13T12:42:11.570Z,99409.53
2024-02-13T12:44:41.597Z,99412.89
2024-02-13T12:47:13.286Z,99408.34
2024-02-13T12:49:43.942Z,99412.23
2024-02-13T12:52:14.372Z,99415.55
2024-02-13T12:54:46.482Z,99419.94
2024-02-13T12:57:16.507Z,99418.71
2024-02-13T12:59:49.013Z,99423.11
2024-02-13T13:02:17.716Z,99425.69
2024-02-13T13:04:52.695Z,99430.36
2024-02-13T13:07:21.897Z,99430.27
2024-02-13T13:09:48.615Z,99433.96
2024-02-13T14:54:44.434Z,99559.66
2024-02-13T14:57:21.717Z,99564.61
2024-02-13T14:59:48.918Z,99566.38
2024-02-13T15:02:23.897Z,99569.25
2024-02-13T15:04:56.105Z,99571.95
2024-02-13T15:07:25.723Z,99575.46
2024-02-13T15:09:52.686Z,99578.21
2024-02-13T15:12:29.809Z,99580.66
2024-02-13T15:15:02.426Z,99585.49
2024-02-13T15:17:36.535Z,99587.32
2024-02-13T15:20:05.334Z,99588.58
2024-02-13T15:22:45.230Z,99593.23
2024-02-13T15:25:15.324Z,99596.50
2024-02-13T15:27:50.993Z,99602.19
2024-02-13T15:30:18.236Z,99607.06
2024-02-13T15:32:48.734Z,99605.77
2024-02-13T15:35:31.463Z,99609.27
2024-02-13T15:38:18.654Z,99611.54
2024-02-13T15:41:16.175Z,99617.96
2024-02-13T15:44:02.994Z,99621.35
2024-02-13T15:46:52.576Z,99625.37
2024-02-13T15:49:23.547Z,99629.52
2024-02-13T15:52:07.638Z,99635.33
2024-02-13T15:54:35.831Z,99634.91
2024-02-13T15:57:08.630Z,99638.27
2024-02-13T15:59:36.707Z,99643.11
2024-02-13T16:02:06.170Z,99642.09
2024-02-13T16:04:37.495Z,99643.77
2024-02-13T16:07:09.169Z,99645.89
2024-02-13T16:09:36.665Z,99656.40
2024-02-13T16:12:13.292Z,99659.06
2024-02-13T16:14:41.322Z,99658.68
2024-02-13T16:17:11.739Z,99664.59
2024-02-13T16:19:39.084Z,99662.57
2024-02-13T16:22:06.842Z,99665.48
2024-02-13T16:24:38.413Z,99667.69
2024-02-13T16:27:07.415Z,99673.63
2024-02-13T16:29:40.345Z,99674.95
2024-02-13T16:32:09.387Z,99679.92
2024-02-13T16:34:38.204Z,99681.85
2024-02-13T16:37:05.489Z,99679.48
2024-02-13T16:39:36.552Z,99681.33
2024-02-13T16:42:07.187Z,99687.31
2024-02-13T16:44:37.148Z,99689.58
2024-02-13T16:47:05.779Z,99694.33
2024-02-13T16:49:34.859Z,99689.75
2024-02-13T16:52:03.015Z,99696.83
2024-02-13T16:54:30.966Z,99696.17
2024-02-13T16:57:01.335Z,99701.11
2024-02-13T16:59:33.654Z,99703.88
2024-02-13T17:02:01.303Z,99707.36
2024-02-13T17:04:33.547Z,99709.98
2024-02-13T17:07:01.225Z,99710.21
2024-02-13T17:09:31.028Z,99711.45
2024-02-13T17:12:05.582Z,99719.19
2024-02-13T17:14:37.188Z,99721.63
2024-02-13T17:17:07.551Z,99729.34
2024-02-13T17:19:36.853Z,99727.04
2024-02-13T17:22:09.083Z,99732.20
2024-02-13T17:24:40.538Z,99728.79
2024-02-13T17:27:12.186Z,99733.55
2024-02-13T17:29:41.392Z,99733.29
2024-02-13T17:32:09.295Z,99736.42
2024-02-13T17:34:39.470Z,99731.24
2024-02-13T17:37:07.551Z,99736.52
2024-02-13T17:39:35.324Z,99739.09
2024-02-13T17:42:02.769Z,99735.64
2024-02-13T17:44:30.354Z,99741.39
2024-02-13T17:46:58.981Z,99737.94
2024-02-13T17:49:25.858Z,99740.27
2024-02-13T17:51:55.270Z,99743.15
2024-02-13T17:54:31.356Z,99741.52
2024-02-13T17:56:59.563Z,99742.95
2024-02-13T17:59:26.540Z,99741.56
2024-02-13T18:01:58.348Z,99740.80
2024-02-13T18:04:40.102Z,99743.15
2024-02-13T18:07:08.040Z,99743.55
2024-02-13T18:09:36.995Z,99737.98
2024-02-13T18:12:06.332Z,99736.38
2024-02-13T18:14:38.405Z,99741.08
2024-02-13T18:17:15.205Z,99740.86
2024-02-13T18:19:44.663Z,99741.56
2024-02-13T18:22:20.772Z,99744.80
2024-02-13T18:24:51.600Z,99748.39
2024-02-13T18:27:20.919Z,99751.27
2024-02-13T18:29:50.393Z,99749.55
2024-02-13T18:32:21.296Z,99757.30
2024-02-13T18:34:48.453Z,99757.83
2024-02-13T18:37:21.072Z,99759.34
2024-02-13T18:39:48.310Z,99759.46
2024-02-13T18:42:19.899Z,99755.98
2024-02-13T18:44:49.452Z,99756.09
2024-02-13T18:47:18.899Z,99761.51
2024-02-13T18:49:47.697Z,99761.88
2024-02-13T18:52:17.471Z,99763.76
2024-02-13T18:54:47.024Z,99768.33
2024-02-13T18:57:14.322Z,99769.10
2024-02-13T18:59:47.704Z,99775.41
2024-02-13T19:02:22.866Z,99780.98
2024-02-13T19:04:52.549Z,99779.73
2024-02-13T19:07:21.948Z,99781.41
2024-02-13T19:09:53.526Z,99777.15
2024-02-13T19:12:20.075Z,99779.92
2024-02-13T19:14:51.449Z,99780.73
2024-02-13T19:17:23.089Z,99778.66
2024-02-13T19:19:52.535Z,99786.52
2024-02-13T19:22:19.690Z,99789.27
2024-02-13T19:24:46.821Z,99792.84
2024-02-13T19:27:16.393Z,99793.12
2024-02-13T19:29:45.859Z,99798.39
2024-02-13T19:32:19.851Z,99799.17
2024-02-13T19:34:49.498Z,99800.75
2024-02-13T19:37:16.800Z,99802.48
2024-02-13T19:39:49.090Z,99804.13
2024-02-13T19:42:21.328Z,99806.64
2024-02-13T19:44:58.377Z,99806.25
2024-02-13T19:47:30.213Z,99808.72
2024-02-13T19:50:06.117Z,99810.11
2024-02-13T19:52:38.627Z,99815.20
2024-02-13T19:55:14.899Z,99816.37
2024-02-13T19:57:43.970Z,99822.24
2024-02-13T20:00:18.347Z,99820.86
2024-02-13T20:02:48.778Z,99823.01
2024-02-13T20:05:17.551Z,99822.98
2024-02-13T20:07:48.781Z,99824.25
2024-02-13T20:10:22.657Z,99818.76
2024-02-13T20:12:52.284Z,99817.77
2024-02-13T20:15:20.988Z,99816.57
2024-02-13T20:17:48.013Z,99824.57
2024-02-13T20:20:20.400Z,99825.38
2024-02-13T20:22:48.900Z,99830.23
2024-02-13T20:25:20.355Z,99829.66
2024-02-13T20:27:51.881Z,99828.89
2024-02-13T20:30:19.094Z,99829.60
2024-02-13T20:32:47.528Z,99830.41
2024-02-13T20:35:17.640Z,99830.21
2024-02-13T20:37:48.499Z,99829.23
2024-02-13T20:40:22.004Z,99828.64
2024-02-13T20:42:50.915Z,99832.15
2024-02-13T20:45:23.596Z,99830.19
2024-02-13T20:47:55.008Z,99833.77
2024-02-13T20:50:22.437Z,99834.59
2024-02-13T20:52:49.704Z,99833.95
2024-02-13T20:55:19.547Z,99839.27
2024-02-13T20:57:48.388Z,99838.52
2024-02-13T21:00:56.150Z,99842.81
2024-02-13T21:04:07.816Z,99846.21
2024-02-13T21:06:43.364Z,99847.61
2024-02-13T21:09:17.205Z,99848.45
2024-02-13T21:11:44.757Z,99850.40
2024-02-13T21:14:11.950Z,99853.21
2024-02-13T21:16:40.079Z,99855.69
2024-02-13T21:19:08.791Z,99858.54
2024-02-13T21:21:54.501Z,99857.06
2024-02-13T21:24:21.660Z,99857.42
2024-02-13T21:26:49.755Z,99853.91
2024-02-13T21:29:21.820Z,99852.98
2024-02-13T21:31:49.980Z,99855.49
2024-02-13T21:34:22.075Z,99861.20
2024-02-13T21:36:49.625Z,99865.88
2024-02-13T21:39:17.533Z,99863.11
2024-02-13T21:41:50.447Z,99868.41
2024-02-13T21:44:19.012Z,99865.37
2024-02-13T21:46:50.492Z,99864.91
2024-02-13T21:49:19.936Z,99862.07
2024-02-13T21:51:54.158Z,99862.44
2024-02-13T21:54:21.121Z,99860.23
2024-02-13T21:56:48.350Z,99865.48
2024-02-13T21:59:17.864Z,99869.36
2024-02-13T22:01:47.935Z,99868.50
2024-02-13T22:04:17.899Z,99868.86
2024-02-13T22:06:45.716Z,99868.68
2024-02-13T22:09:17.819Z,99869.61
2024-02-13T22:11:48.686Z,99868.96
2024-02-13T22:14:15.772Z,99876.59
2024-02-13T22:16:43.645Z,99885.84
2024-02-13T22:19:13.752Z,99885.53
2024-02-13T22:21:42.176Z,99883.38
2024-02-13T22:24:14.844Z,99886.14
2024-02-13T22:26:42.584Z,99887.27
2024-02-13T22:29:11.788Z,99890.19
2024-02-13T22:31:41.091Z,99889.07
2024-02-13T22:34:13.794Z,99889.98
2024-02-13T22:36:45.318Z,99887.79
2024-02-13T22:39:15.027Z,99891.16
2024-02-13T22:41:42.521Z,99891.38
2024-02-13T22:44:09.646Z,99894.35
2024-02-13T22:46:36.988Z,99901.03
2024-02-13T22:49:08.939Z,99906.70
2024-02-13T22:51:44.056Z,99905.58
2024-02-13T22:54:17.052Z,99910.95
2024-02-13T22:56:43.972Z,99911.20
2024-02-13T22:59:14.010Z,99916.14
2024-02-13T23:01:41.202Z,99915.80
2024-02-13T23:04:10.792Z,99912.79
2024-02-13T23:06:42.837Z,99916.78
2024-02-13T23:09:17.198Z,99916.48
2024-02-13T23:11:45.772Z,99915.70
2024-02-13T23:14:15.065Z,99912.48
2024-02-13T23:16:47.592Z,99913.70
2024-02-13T23:19:14.931Z,99915.69
2024-02-13T23:21:44.448Z,99918.52
2024-02-13T23:24:13.031Z,99915.63
2024-02-13T23:26:42.502Z,99915.21
2024-02-13T23:29:11.815Z,99924.34
2024-02-13T23:31:41.494Z,99922.42
2024-02-13T23:34:11.128Z,99918.23
2024-02-13T23:36:39.700Z,99917.33
2024-02-13T23:39:07.001Z,99924.18
2024-02-13T23:41:34.312Z,99926.43
2024-02-13T23:44:05.031Z,99925.98
2024-02-13T23:46:32.550Z,99926.98
2024-02-13T23:49:02.825Z,99929.89
2024-02-13T23:51:29.993Z,99925.80
2024-02-13T23:53:59.910Z,99930.44
2024-02-13T23:56:26.938Z,99927.67
2024-02-13T23:58:54.586Z,99930.63
